createdAt,value
2022-10-02T00:00:30.515Z,9.757625
2022-10-02T00:01:30.565Z,9.757574
2022-10-02T00:02:30.515Z,9.757691
2022-10-02T00:03:30.635Z,9.757569
2022-10-02T00:04:30.572Z,9.757653
2022-10-02T00:05:30.478Z,9.757607
2022-10-02T00:06:30.466Z,9.757569
2022-10-02T00:07:30.445Z,9.757563
2022-10-02T00:08:31.458Z,9.757669
2022-10-02T00:09:30.483Z,9.757511
2022-10-02T00:10:30.428Z,9.757564
2022-10-02T00:11:30.430Z,9.757813
2022-10-02T00:12:30.421Z,9.757785
2022-10-02T00:13:30.409Z,9.757686
2022-10-02T00:14:30.428Z,9.757365
2022-10-02T00:15:30.396Z,9.757383
2022-10-02T00:16:30.439Z,9.757407
2022-10-02T00:17:30.373Z,9.757518
2022-10-02T00:18:30.373Z,9.757608
2022-10-02T00:19:30.393Z,9.757668
2022-10-02T00:20:30.359Z,9.757649
2022-10-02T00:21:30.349Z,9.757637
2022-10-02T00:22:30.348Z,9.757521
2022-10-02T00:23:30.330Z,9.757610
2022-10-02T00:24:30.362Z,9.757563
2022-10-02T00:25:30.309Z,9.757724
2022-10-02T00:26:30.385Z,9.757648
2022-10-02T00:27:30.294Z,9.757754
2022-10-02T00:28:30.351Z,9.757669
2022-10-02T00:29:30.307Z,9.757478
2022-10-02T00:30:30.268Z,9.757578
2022-10-02T00:31:30.326Z,9.757633
2022-10-02T00:32:30.251Z,9.757638
2022-10-02T00:33:30.249Z,9.757565
2022-10-02T00:34:30.238Z,9.757590
2022-10-02T00:35:30.253Z,9.757710
2022-10-02T00:36:30.222Z,9.757589
2022-10-02T00:37:30.212Z,9.757584
2022-10-02T00:38:30.201Z,9.757581
2022-10-02T00:39:30.196Z,9.757613
2022-10-02T00:40:30.228Z,9.757524
2022-10-02T00:41:30.181Z,9.757549
2022-10-02T00:42:30.173Z,9.757537
2022-10-02T00:43:30.167Z,9.757584
2022-10-02T00:44:30.162Z,9.757636
2022-10-02T00:45:30.189Z,9.757677
2022-10-02T00:46:30.143Z,9.757668
2022-10-02T00:47:30.127Z,9.757561
2022-10-02T00:48:30.119Z,9.757545
2022-10-02T00:49:30.114Z,9.757681
2022-10-02T00:50:30.138Z,9.757586
2022-10-02T00:51:30.096Z,9.757641
2022-10-02T00:52:30.090Z,9.757627
2022-10-02T00:53:30.115Z,9.757555
2022-10-02T00:54:30.071Z,9.757506
2022-10-02T00:55:30.101Z,9.757457
2022-10-02T00:56:30.056Z,9.757401
2022-10-02T00:57:30.049Z,9.757414
2022-10-02T00:58:30.044Z,9.757468
2022-10-02T00:59:30.035Z,9.757504
2022-10-02T01:00:30.053Z,9.757517
2022-10-02T01:01:30.016Z,9.757576
2022-10-02T01:02:30.093Z,9.757569
2022-10-02T01:03:30.008Z,9.757492
2022-10-02T01:04:29.997Z,9.757463
2022-10-02T01:05:29.992Z,9.757469
2022-10-02T01:06:30.052Z,9.757472
2022-10-02T01:07:30.011Z,9.757562
2022-10-02T01:08:29.966Z,9.757701
2022-10-02T01:09:29.963Z,9.757517
2022-10-02T01:10:29.950Z,9.757531
2022-10-02T01:11:29.976Z,9.757494
2022-10-02T01:12:29.935Z,9.757503
2022-10-02T01:13:29.933Z,9.757560
2022-10-02T01:14:29.919Z,9.757558
2022-10-02T01:15:30.662Z,9.757529
2022-10-02T01:16:29.975Z,9.757558
2022-10-02T01:17:29.886Z,9.757391
2022-10-02T01:18:29.880Z,9.757599
2022-10-02T01:19:29.939Z,9.757463
2022-10-02T01:20:29.903Z,9.757463
2022-10-02T01:21:29.889Z,9.757492
2022-10-02T01:22:29.846Z,9.757550
2022-10-02T01:23:29.852Z,9.757515
2022-10-02T01:24:29.838Z,9.757545
2022-10-02T01:25:29.820Z,9.757531
2022-10-02T01:26:29.845Z,9.757511
2022-10-02T01:27:29.806Z,9.757412
2022-10-02T01:28:29.878Z,9.757406
2022-10-02T01:29:29.788Z,9.757479
2022-10-02T01:30:29.812Z,9.757581
2022-10-02T01:31:29.814Z,9.757467
2022-10-02T01:32:29.826Z,9.757465
2022-10-02T01:33:29.761Z,9.757531
2022-10-02T01:34:29.744Z,9.757504
2022-10-02T01:35:29.742Z,9.757550
2022-10-02T01:36:29.761Z,9.757522
2022-10-02T01:37:29.726Z,9.757483
2022-10-02T01:38:29.723Z,9.757519
2022-10-02T01:39:29.713Z,9.757505
2022-10-02T01:40:29.697Z,9.757535
2022-10-02T01:41:29.723Z,9.757407
2022-10-02T01:42:29.701Z,9.757408
2022-10-02T01:43:30.696Z,9.757647
2022-10-02T01:44:29.672Z,9.757393
2022-10-02T01:45:29.743Z,9.757511
2022-10-02T01:46:29.695Z,9.757556
2022-10-02T01:47:29.639Z,9.757518
2022-10-02T01:48:29.645Z,9.757450
2022-10-02T01:49:29.628Z,9.757442
2022-10-02T01:50:29.615Z,9.757694
2022-10-02T01:51:29.603Z,9.757516
2022-10-02T01:52:29.633Z,9.757502
2022-10-02T01:53:29.614Z,9.757427
2022-10-02T01:54:29.586Z,9.757476
2022-10-02T01:55:29.569Z,9.757551
2022-10-02T01:56:29.605Z,9.757517
2022-10-02T01:57:29.560Z,9.757594
2022-10-02T01:58:29.557Z,9.757930
2022-10-02T01:59:29.547Z,9.757640
2022-10-02T02:00:29.535Z,9.756416
2022-10-02T02:01:29.600Z,9.757438
2022-10-02T02:02:29.612Z,9.757622
2022-10-02T02:03:29.511Z,9.757627
2022-10-02T02:04:29.501Z,9.757700
2022-10-02T02:05:29.489Z,9.757452
2022-10-02T02:06:29.515Z,9.757420
2022-10-02T02:07:29.483Z,9.757584
2022-10-02T02:08:29.467Z,9.757816
2022-10-02T02:09:29.465Z,9.757421
2022-10-02T02:10:29.466Z,9.757511
2022-10-02T02:11:29.451Z,9.757671
2022-10-02T02:12:29.498Z,9.757545
2022-10-02T02:13:29.461Z,9.757656
2022-10-02T02:14:29.418Z,9.757575
2022-10-02T02:15:29.418Z,9.757626
2022-10-02T02:16:29.488Z,9.757506
2022-10-02T02:17:29.428Z,9.757495
2022-10-02T02:18:29.391Z,9.757561
2022-10-02T02:19:29.384Z,9.757559
2022-10-02T02:20:29.368Z,9.757606
2022-10-02T02:21:29.365Z,9.757494
2022-10-02T02:22:29.377Z,9.757524
2022-10-02T02:23:29.346Z,9.757470
2022-10-02T02:24:29.336Z,9.757579
2022-10-02T02:25:29.330Z,9.757691
2022-10-02T02:26:29.327Z,9.757762
2022-10-02T02:27:29.341Z,9.757868
2022-10-02T02:28:29.376Z,9.757600
2022-10-02T02:29:29.299Z,9.757667
2022-10-02T02:30:29.291Z,9.757836
2022-10-02T02:31:29.352Z,9.757931
2022-10-02T02:32:29.311Z,9.758110
2022-10-02T02:33:29.269Z,9.757801
2022-10-02T02:34:29.271Z,9.757677
2022-10-02T02:35:29.251Z,9.757586
2022-10-02T02:36:29.250Z,9.757504
2022-10-02T02:37:29.262Z,9.757545
2022-10-02T02:38:29.228Z,9.757504
2022-10-02T02:39:29.257Z,9.757487
2022-10-02T02:40:29.218Z,9.757335
2022-10-02T02:41:29.215Z,9.757357
2022-10-02T02:42:29.250Z,9.757402
2022-10-02T02:43:29.189Z,9.758072
2022-10-02T02:44:29.201Z,9.758180
2022-10-02T02:45:29.199Z,9.757883
2022-10-02T02:46:29.160Z,9.757742
2022-10-02T02:47:29.187Z,9.757894
2022-10-02T02:48:29.147Z,9.758048
2022-10-02T02:49:29.145Z,9.757863
2022-10-02T02:50:29.142Z,9.757726
2022-10-02T02:51:29.124Z,9.757549
2022-10-02T02:52:29.143Z,9.757498
2022-10-02T02:53:29.107Z,9.757584
2022-10-02T02:54:29.137Z,9.757665
2022-10-02T02:55:29.097Z,9.757677
2022-10-02T02:56:29.086Z,9.757650
2022-10-02T02:57:29.102Z,9.757782
2022-10-02T02:58:29.067Z,9.757806
2022-10-02T02:59:29.066Z,9.757740
2022-10-02T03:00:29.053Z,9.757596
2022-10-02T03:01:29.121Z,9.757595
2022-10-02T03:02:29.083Z,9.757789
2022-10-02T03:03:29.027Z,9.757618
2022-10-02T03:04:29.010Z,9.757658
2022-10-02T03:05:29.012Z,9.757708
2022-10-02T03:06:29.006Z,9.757651
2022-10-02T03:07:29.021Z,9.757761
2022-10-02T03:08:28.983Z,9.757609
2022-10-02T03:09:28.983Z,9.757516
2022-10-02T03:10:28.977Z,9.757549
2022-10-02T03:11:28.961Z,9.757587
2022-10-02T03:12:28.991Z,9.757498
2022-10-02T03:13:28.943Z,9.757498
2022-10-02T03:14:28.934Z,9.757545
2022-10-02T03:15:28.981Z,9.757639
2022-10-02T03:16:28.921Z,9.757587
2022-10-02T03:17:28.913Z,9.757524
2022-10-02T03:18:28.934Z,9.757559
2022-10-02T03:19:28.900Z,9.757634
2022-10-02T03:20:28.893Z,9.757549
2022-10-02T03:21:28.881Z,9.757444
2022-10-02T03:22:28.888Z,9.757480
2022-10-02T03:23:28.891Z,9.757463
2022-10-02T03:24:28.851Z,9.757505
2022-10-02T03:25:28.848Z,9.757367
2022-10-02T03:26:28.845Z,9.757328
2022-10-02T03:27:34.031Z,9.757357
2022-10-02T03:28:53.967Z,9.757437
2022-10-02T03:29:30.821Z,9.757411
2022-10-02T03:30:28.806Z,9.757474
2022-10-02T03:31:28.857Z,9.757414
2022-10-02T03:32:28.790Z,9.757434
2022-10-02T03:33:28.807Z,9.757268
2022-10-02T03:34:28.774Z,9.757315
2022-10-02T03:35:28.763Z,9.757556
2022-10-02T03:36:28.761Z,9.757360
2022-10-02T03:37:28.755Z,9.757365
2022-10-02T03:38:28.780Z,9.757426
2022-10-02T03:39:28.740Z,9.757370
2022-10-02T03:40:28.724Z,9.757481
2022-10-02T03:41:28.723Z,9.757411
2022-10-02T03:42:28.706Z,9.757491
2022-10-02T03:43:28.738Z,9.757406
2022-10-02T03:44:28.706Z,9.757386
2022-10-02T03:45:49.875Z,9.757341
2022-10-02T03:46:30.782Z,9.757380
2022-10-02T03:47:28.676Z,9.757427
2022-10-02T03:48:28.692Z,9.757380
2022-10-02T03:49:28.655Z,9.757439
2022-10-02T03:50:30.796Z,9.757433
2022-10-02T03:51:30.635Z,9.757432
2022-10-02T03:52:28.627Z,9.757372
2022-10-02T03:53:28.659Z,9.757322
2022-10-02T03:54:28.626Z,9.757148
2022-10-02T03:55:28.601Z,9.757119
2022-10-02T03:56:28.597Z,9.757236
2022-10-02T03:57:28.594Z,9.757314
2022-10-02T03:58:28.616Z,9.757414
2022-10-02T03:59:28.567Z,9.757465
2022-10-02T04:00:28.567Z,9.757601
2022-10-02T04:01:28.626Z,9.757526
2022-10-02T04:02:28.578Z,9.757544
2022-10-02T04:03:28.602Z,9.757516
2022-10-02T04:04:28.541Z,9.757503
2022-10-02T04:05:28.521Z,9.757652
2022-10-02T04:06:28.508Z,9.758104
2022-10-02T04:07:28.510Z,9.758205
2022-10-02T04:08:28.504Z,9.758156
2022-10-02T04:09:28.514Z,9.758138
2022-10-02T04:10:28.479Z,9.757975
2022-10-02T04:11:28.477Z,9.757951
2022-10-02T04:12:28.464Z,9.758171
2022-10-02T04:13:28.493Z,9.758011
2022-10-02T04:14:28.453Z,9.757627
2022-10-02T04:15:28.443Z,9.757636
2022-10-02T04:16:28.472Z,9.757657
2022-10-02T04:17:28.424Z,9.757778
2022-10-02T04:18:28.413Z,9.757647
2022-10-02T04:19:28.436Z,9.757623
2022-10-02T04:20:28.396Z,9.757478
2022-10-02T04:21:28.389Z,9.757504
2022-10-02T04:22:28.381Z,9.757362
2022-10-02T04:23:28.368Z,9.757352
2022-10-02T04:24:28.394Z,9.757495
2022-10-02T04:25:28.352Z,9.757529
2022-10-02T04:26:28.347Z,9.757512
2022-10-02T04:27:28.341Z,9.757458
2022-10-02T04:28:28.409Z,9.757395
2022-10-02T04:29:28.346Z,9.757560
2022-10-02T04:30:28.303Z,9.757542
2022-10-02T04:31:28.335Z,9.757580
2022-10-02T04:32:28.298Z,9.757479
2022-10-02T04:33:28.277Z,9.757512
2022-10-02T04:34:28.310Z,9.757519
2022-10-02T04:35:28.265Z,9.757495
2022-10-02T04:36:28.251Z,9.757494
2022-10-02T04:37:28.253Z,9.757561
2022-10-02T04:38:28.254Z,9.757543
2022-10-02T04:39:28.273Z,9.757626
2022-10-02T04:40:28.225Z,9.757441
2022-10-02T04:41:28.211Z,9.757401
2022-10-02T04:42:28.207Z,9.757336
2022-10-02T04:43:28.195Z,9.757413
2022-10-02T04:44:28.217Z,9.757536
2022-10-02T04:45:28.211Z,9.757504
2022-10-02T04:46:28.177Z,9.757518
2022-10-02T04:47:28.165Z,9.757401
2022-10-02T04:48:28.152Z,9.757457
2022-10-02T04:49:28.180Z,9.757497
2022-10-02T04:50:28.145Z,9.757317
2022-10-02T04:51:28.128Z,9.757407
2022-10-02T04:52:28.124Z,9.757499
2022-10-02T04:53:28.119Z,9.757557
2022-10-02T04:54:28.143Z,9.757553
2022-10-02T04:55:28.098Z,9.757552
2022-10-02T04:56:28.091Z,9.757377
2022-10-02T04:57:28.109Z,9.757510
2022-10-02T04:58:28.072Z,9.757244
2022-10-02T04:59:28.091Z,9.757343
2022-10-02T05:00:28.060Z,9.757397
2022-10-02T05:01:28.057Z,9.757416
2022-10-02T05:02:28.078Z,9.757668
2022-10-02T05:03:28.039Z,9.757557
2022-10-02T05:04:28.046Z,9.757457
2022-10-02T05:05:28.053Z,9.757485
2022-10-02T05:06:28.014Z,9.757520
2022-10-02T05:07:28.003Z,9.757421
2022-10-02T05:08:27.997Z,9.757452
2022-10-02T05:09:28.649Z,9.757498
2022-10-02T05:10:29.006Z,9.757366
2022-10-02T05:11:27.996Z,9.757361
2022-10-02T05:12:27.970Z,9.757556
2022-10-02T05:13:27.959Z,9.757511
2022-10-02T05:14:27.951Z,9.757529
2022-10-02T05:15:27.972Z,9.757290
2022-10-02T05:16:28.024Z,9.757165
2022-10-02T05:17:27.922Z,9.757643
2022-10-02T05:18:27.939Z,9.757519
2022-10-02T05:19:27.908Z,9.757388
2022-10-02T05:20:27.928Z,9.757340
2022-10-02T05:21:27.911Z,9.757215
2022-10-02T05:22:27.885Z,9.757406
2022-10-02T05:23:27.882Z,9.757391
2022-10-02T05:24:27.872Z,9.757457
2022-10-02T05:25:27.885Z,9.757522
2022-10-02T05:26:27.848Z,9.757670
2022-10-02T05:27:27.839Z,9.757535
2022-10-02T05:28:27.881Z,9.757413
2022-10-02T05:29:27.861Z,9.757472
2022-10-02T05:30:27.849Z,9.757586
2022-10-02T05:31:27.882Z,9.757502
2022-10-02T05:32:27.800Z,9.757371
2022-10-02T05:33:27.794Z,9.757390
2022-10-02T05:34:27.793Z,9.757327
2022-10-02T05:35:27.803Z,9.757173
2022-10-02T05:36:27.776Z,9.757304
2022-10-02T05:37:27.769Z,9.757392
2022-10-02T05:38:27.745Z,9.757468
2022-10-02T05:39:27.741Z,9.757426
2022-10-02T05:40:27.794Z,9.757465
2022-10-02T05:41:27.726Z,9.757569
2022-10-02T05:42:27.749Z,9.757668
2022-10-02T05:43:27.700Z,9.757548
2022-10-02T05:44:27.690Z,9.757655
2022-10-02T05:45:27.715Z,9.757394
2022-10-02T05:46:27.866Z,9.757469
2022-10-02T05:47:27.674Z,9.757417
2022-10-02T05:48:27.649Z,9.757429
2022-10-02T05:49:28.652Z,9.757478
2022-10-02T05:50:27.684Z,9.757408
2022-10-02T05:51:27.645Z,9.757456
2022-10-02T05:52:27.628Z,9.757520
2022-10-02T05:53:27.622Z,9.757714
2022-10-02T05:54:27.604Z,9.757831
2022-10-02T05:55:27.638Z,9.757618
2022-10-02T05:56:27.590Z,9.757630
2022-10-02T05:57:27.588Z,9.757473
2022-10-02T05:58:27.580Z,9.757628
2022-10-02T05:59:27.576Z,9.757640
2022-10-02T06:00:27.637Z,9.757965
2022-10-02T06:01:27.676Z,9.757828
2022-10-02T06:02:27.598Z,9.757631
2022-10-02T06:03:27.541Z,9.757598
2022-10-02T06:04:27.525Z,9.757513
2022-10-02T06:05:28.553Z,9.757704
2022-10-02T06:06:27.514Z,9.757867
2022-10-02T06:07:27.500Z,9.757789
2022-10-02T06:08:27.511Z,9.757800
2022-10-02T06:09:27.494Z,9.757756
2022-10-02T06:10:27.560Z,9.757787
2022-10-02T06:11:27.482Z,9.757919
2022-10-02T06:12:27.463Z,9.757917
2022-10-02T06:13:27.457Z,9.757908
2022-10-02T06:14:27.468Z,9.757476
2022-10-02T06:15:27.465Z,9.757580
2022-10-02T06:16:27.626Z,9.757458
2022-10-02T06:17:27.436Z,9.757450
2022-10-02T06:18:27.413Z,9.757753
2022-10-02T06:19:27.401Z,9.757586
2022-10-02T06:20:27.422Z,9.757579
2022-10-02T06:21:27.401Z,9.757478
2022-10-02T06:22:27.394Z,9.757421
2022-10-02T06:23:27.373Z,9.757809
2022-10-02T06:24:27.363Z,9.757662
2022-10-02T06:25:27.382Z,9.757551
2022-10-02T06:26:28.368Z,9.757495
2022-10-02T06:27:27.352Z,9.757430
2022-10-02T06:28:27.377Z,9.757513
2022-10-02T06:29:27.464Z,9.757588
2022-10-02T06:30:27.344Z,9.757793
2022-10-02T06:31:27.344Z,9.757713
2022-10-02T06:32:27.295Z,9.757679
2022-10-02T06:33:27.288Z,9.757401
2022-10-02T06:34:27.276Z,9.757257
2022-10-02T06:35:27.305Z,9.757729
2022-10-02T06:36:27.262Z,9.757705
2022-10-02T06:37:27.259Z,9.757677
2022-10-02T06:38:27.245Z,9.757532
2022-10-02T06:39:27.232Z,9.757523
2022-10-02T06:40:27.291Z,9.757612
2022-10-02T06:41:27.214Z,9.757681
2022-10-02T06:42:27.203Z,9.757558
2022-10-02T06:43:27.195Z,9.757480
2022-10-02T06:44:28.192Z,9.757480
2022-10-02T06:45:27.225Z,9.757427
2022-10-02T06:46:27.231Z,9.757444
2022-10-02T06:47:27.168Z,9.757492
2022-10-02T06:48:27.194Z,9.757474
2022-10-02T06:49:27.151Z,9.757503
2022-10-02T06:50:27.171Z,9.757490
2022-10-02T06:51:27.159Z,9.757459
2022-10-02T06:52:27.128Z,9.757443
2022-10-02T06:53:27.117Z,9.757456
2022-10-02T06:54:27.141Z,9.757368
2022-10-02T06:55:27.129Z,9.757452
2022-10-02T06:56:27.128Z,9.757428
2022-10-02T06:57:27.079Z,9.757421
2022-10-02T06:58:27.076Z,9.757460
2022-10-02T06:59:27.055Z,9.757477
2022-10-02T07:00:28.086Z,9.757467
2022-10-02T07:01:27.060Z,9.757427
2022-10-02T07:02:28.082Z,9.757458
2022-10-02T07:03:27.033Z,9.757439
2022-10-02T07:04:27.029Z,9.757476
2022-10-02T07:05:27.044Z,9.757473
2022-10-02T07:06:28.021Z,9.757447
2022-10-02T07:07:27.002Z,9.757413
2022-10-02T07:08:27.022Z,9.757460
2022-10-02T07:09:26.983Z,9.757381
2022-10-02T07:10:27.011Z,9.757412
2022-10-02T07:11:26.986Z,9.757525
2022-10-02T07:12:27.001Z,9.757406
2022-10-02T07:13:26.963Z,9.757451
2022-10-02T07:14:26.960Z,9.757437
2022-10-02T07:15:26.971Z,9.757502
2022-10-02T07:16:26.966Z,9.757396
2022-10-02T07:17:26.930Z,9.757423
2022-10-02T07:18:26.940Z,9.757416
2022-10-02T07:19:26.904Z,9.757563
2022-10-02T07:20:26.936Z,9.757508
2022-10-02T07:21:26.893Z,9.757455
2022-10-02T07:22:43.812Z,9.757656
2022-10-02T07:23:28.877Z,9.757549
2022-10-02T07:24:26.902Z,9.757479
2022-10-02T07:25:26.943Z,9.757428
2022-10-02T07:26:26.943Z,9.757485
2022-10-02T07:27:26.843Z,9.757409
2022-10-02T07:28:26.868Z,9.757379
2022-10-02T07:29:26.824Z,9.757437
2022-10-02T07:30:26.835Z,9.757572
2022-10-02T07:31:26.827Z,9.757534
2022-10-02T07:32:26.802Z,9.757309
2022-10-02T07:33:29.991Z,9.757550
2022-10-02T07:34:27.779Z,9.757696
2022-10-02T07:35:26.811Z,9.757657
2022-10-02T07:36:26.768Z,9.757454
2022-10-02T07:37:26.761Z,9.757450
2022-10-02T07:38:26.749Z,9.757446
2022-10-02T07:39:26.739Z,9.756903
2022-10-02T07:40:26.764Z,9.756876
2022-10-02T07:41:26.722Z,9.757442
2022-10-02T07:42:26.716Z,9.757504
2022-10-02T07:43:26.712Z,9.757980
2022-10-02T07:44:26.717Z,9.757317
2022-10-02T07:45:26.739Z,9.757389
2022-10-02T07:46:26.707Z,9.757492
2022-10-02T07:47:26.681Z,9.757242
2022-10-02T07:48:26.658Z,9.757488
2022-10-02T07:49:26.661Z,9.757597
2022-10-02T07:50:26.681Z,9.757688
2022-10-02T07:51:26.641Z,9.757648
2022-10-02T07:52:26.629Z,9.757837
2022-10-02T07:53:26.620Z,9.757831
2022-10-02T07:54:26.614Z,9.757591
2022-10-02T07:55:26.684Z,9.757585
2022-10-02T07:56:26.656Z,9.757562
2022-10-02T07:57:26.595Z,9.757685
2022-10-02T07:58:26.586Z,9.757710
2022-10-02T07:59:26.576Z,9.757565
2022-10-02T08:00:26.600Z,9.757363
2022-10-02T08:01:26.642Z,9.756355
2022-10-02T08:02:26.576Z,9.756432
2022-10-02T08:03:26.596Z,9.757113
2022-10-02T08:04:26.539Z,9.757662
2022-10-02T08:05:26.574Z,9.757406
2022-10-02T08:06:26.527Z,9.756086
2022-10-02T08:07:26.514Z,9.756678
2022-10-02T08:08:26.501Z,9.757636
2022-10-02T08:09:26.497Z,9.757907
2022-10-02T08:10:26.489Z,9.757622
2022-10-02T08:11:26.546Z,9.757584
2022-10-02T08:12:26.474Z,9.757703
2022-10-02T08:13:26.455Z,9.757695
2022-10-02T08:14:26.462Z,9.757657
2022-10-02T08:15:26.537Z,9.757607
2022-10-02T08:16:26.531Z,9.757562
2022-10-02T08:17:26.427Z,9.757456
2022-10-02T08:18:35.059Z,9.757522
2022-10-02T08:19:28.417Z,9.757508
2022-10-02T08:20:29.278Z,9.757526
2022-10-02T08:21:27.422Z,9.757546
2022-10-02T08:22:26.399Z,9.757574
2022-10-02T08:23:26.383Z,9.757664
2022-10-02T08:24:26.374Z,9.757824
2022-10-02T08:25:26.361Z,9.757571
2022-10-02T08:26:26.400Z,9.757576
2022-10-02T08:27:26.348Z,9.757607
2022-10-02T08:28:26.375Z,9.757741
2022-10-02T08:29:26.333Z,9.758088
2022-10-02T08:30:26.328Z,9.757627
2022-10-02T08:31:26.477Z,9.757624
2022-10-02T08:32:26.312Z,9.757793
2022-10-02T08:33:26.302Z,9.757915
2022-10-02T08:34:26.296Z,9.757767
2022-10-02T08:35:26.288Z,9.757799
2022-10-02T08:36:26.314Z,9.759553
2022-10-02T08:37:26.268Z,9.758824
2022-10-02T08:38:26.256Z,9.758308
2022-10-02T08:39:26.253Z,9.757985
2022-10-02T08:40:26.244Z,9.757318
2022-10-02T08:41:26.296Z,9.757755
2022-10-02T08:42:26.226Z,9.758021
2022-10-02T08:43:26.225Z,9.757713
2022-10-02T08:44:26.214Z,9.757741
2022-10-02T08:45:26.275Z,9.757536
2022-10-02T08:46:26.227Z,9.757743
2022-10-02T08:47:26.185Z,9.757649
2022-10-02T08:48:26.170Z,9.757633
2022-10-02T08:49:26.174Z,9.757839
2022-10-02T08:50:26.161Z,9.757712
2022-10-02T08:51:26.150Z,9.757600
2022-10-02T08:52:26.173Z,9.757723
2022-10-02T08:53:26.150Z,9.757704
2022-10-02T08:54:26.118Z,9.757775
2022-10-02T08:55:26.111Z,9.757789
2022-10-02T08:56:26.115Z,9.757896
2022-10-02T08:57:26.124Z,9.757741
2022-10-02T08:58:26.089Z,9.757899
2022-10-02T08:59:26.096Z,9.757704
2022-10-02T09:00:26.083Z,9.757655
2022-10-02T09:01:26.104Z,9.757636
2022-10-02T09:02:26.116Z,9.757717
2022-10-02T09:03:26.055Z,9.757463
2022-10-02T09:04:26.038Z,9.757345
2022-10-02T09:05:26.031Z,9.757585
2022-10-02T09:06:26.020Z,9.757534
2022-10-02T09:07:28.198Z,9.757565
2022-10-02T09:08:27.014Z,9.757483
2022-10-02T09:09:26.003Z,9.757421
2022-10-02T09:10:26.001Z,9.757545
2022-10-02T09:11:25.983Z,9.757479
2022-10-02T09:12:26.011Z,9.757554
2022-10-02T09:13:25.963Z,9.757373
2022-10-02T09:14:25.960Z,9.757523
2022-10-02T09:15:26.145Z,9.757527
2022-10-02T09:16:26.088Z,9.757973
2022-10-02T09:17:25.957Z,9.757731
2022-10-02T09:18:25.919Z,9.757500
2022-10-02T09:19:25.927Z,9.757457
2022-10-02T09:20:25.908Z,9.757423
2022-10-02T09:21:25.901Z,9.757418
2022-10-02T09:22:25.936Z,9.757352
2022-10-02T09:23:25.884Z,9.757514
2022-10-02T09:24:25.889Z,9.757559
2022-10-02T09:25:25.866Z,9.757627
2022-10-02T09:26:25.855Z,9.757915
2022-10-02T09:27:25.884Z,9.757592
2022-10-02T09:28:25.922Z,9.757627
2022-10-02T09:29:25.832Z,9.757546
2022-10-02T09:30:25.834Z,9.757518
2022-10-02T09:31:25.876Z,9.757625
2022-10-02T09:32:25.826Z,9.757470
2022-10-02T09:33:25.797Z,9.757407
2022-10-02T09:34:25.812Z,9.757358
2022-10-02T09:35:25.786Z,9.757417
2022-10-02T09:36:25.778Z,9.757526
2022-10-02T09:37:25.822Z,9.757744
2022-10-02T09:38:25.755Z,9.757596
2022-10-02T09:39:25.744Z,9.757541
2022-10-02T09:40:25.737Z,9.757332
2022-10-02T09:41:25.734Z,9.757343
2022-10-02T09:42:25.763Z,9.757476
2022-10-02T09:43:25.714Z,9.757456
2022-10-02T09:44:25.705Z,9.757643
2022-10-02T09:45:25.765Z,9.757668
2022-10-02T09:46:25.684Z,9.757428
2022-10-02T09:47:25.719Z,9.757455
2022-10-02T09:48:25.670Z,9.757528
2022-10-02T09:49:25.662Z,9.757612
2022-10-02T09:50:25.661Z,9.757602
2022-10-02T09:51:25.633Z,9.757491
2022-10-02T09:52:25.658Z,9.757465
2022-10-02T09:53:26.703Z,9.757436
2022-10-02T09:54:25.620Z,9.757457
2022-10-02T09:55:25.632Z,9.757347
2022-10-02T09:56:25.696Z,9.757461
2022-10-02T09:57:25.634Z,9.757428
2022-10-02T09:58:25.578Z,9.757368
2022-10-02T09:59:25.573Z,9.757510
2022-10-02T10:00:25.588Z,9.757483
2022-10-02T10:01:25.614Z,9.757455
2022-10-02T10:02:25.991Z,9.757524
2022-10-02T10:03:26.545Z,9.757460
2022-10-02T10:04:33.870Z,9.757300
2022-10-02T10:05:27.527Z,9.757404
2022-10-02T10:06:25.523Z,9.757484
2022-10-02T10:07:25.562Z,9.757512
2022-10-02T10:08:25.509Z,9.757444
2022-10-02T10:09:25.495Z,9.757462
2022-10-02T10:10:25.487Z,9.757598
2022-10-02T10:11:25.485Z,9.757514
2022-10-02T10:12:25.502Z,9.757480
2022-10-02T10:13:25.468Z,9.757514
2022-10-02T10:14:25.461Z,9.757705
2022-10-02T10:15:25.448Z,9.757634
2022-10-02T10:16:25.478Z,9.757492
2022-10-02T10:17:25.461Z,9.757449
2022-10-02T10:18:25.423Z,9.757483
2022-10-02T10:19:25.414Z,9.757391
2022-10-02T10:20:25.413Z,9.757453
2022-10-02T10:21:29.466Z,9.757681
2022-10-02T10:22:26.409Z,9.757531
2022-10-02T10:23:25.379Z,9.757642
2022-10-02T10:24:25.372Z,9.757574
2022-10-02T10:25:25.372Z,9.757492
2022-10-02T10:26:25.347Z,9.757467
2022-10-02T10:27:25.337Z,9.757543
2022-10-02T10:28:25.419Z,9.757636
2022-10-02T10:29:25.324Z,9.757587
2022-10-02T10:30:25.326Z,9.757465
2022-10-02T10:31:25.360Z,9.757456
2022-10-02T10:32:25.301Z,9.757586
2022-10-02T10:33:25.315Z,9.757545
2022-10-02T10:34:25.279Z,9.757429
2022-10-02T10:35:25.296Z,9.757555
2022-10-02T10:36:25.269Z,9.757527
2022-10-02T10:37:25.257Z,9.757463
2022-10-02T10:38:25.281Z,9.757359
2022-10-02T10:39:25.252Z,9.757463
2022-10-02T10:40:25.238Z,9.757265
2022-10-02T10:41:25.229Z,9.757173
2022-10-02T10:42:25.221Z,9.757127
2022-10-02T10:43:25.242Z,9.757421
2022-10-02T10:44:25.201Z,9.757439
2022-10-02T10:45:25.244Z,9.757400
2022-10-02T10:46:25.187Z,9.757383
2022-10-02T10:47:25.173Z,9.757536
2022-10-02T10:48:25.194Z,9.757452
2022-10-02T10:49:25.150Z,9.757406
2022-10-02T10:50:25.148Z,9.757436
2022-10-02T10:51:25.139Z,9.757522
2022-10-02T10:52:25.132Z,9.757536
2022-10-02T10:53:25.152Z,9.757445
2022-10-02T10:54:25.125Z,9.757547
2022-10-02T10:55:25.109Z,9.757485
2022-10-02T10:56:25.099Z,9.757515
2022-10-02T10:57:25.090Z,9.757607
2022-10-02T10:58:25.112Z,9.757590
2022-10-02T10:59:25.642Z,9.757524
2022-10-02T11:00:26.060Z,9.757475
2022-10-02T11:01:25.128Z,9.757506
2022-10-02T11:02:25.114Z,9.757429
2022-10-02T11:03:25.075Z,9.757453
2022-10-02T11:04:25.035Z,9.757408
2022-10-02T11:05:25.023Z,9.757492
2022-10-02T11:06:25.018Z,9.757494
2022-10-02T11:07:25.006Z,9.757496
2022-10-02T11:08:24.998Z,9.757413
2022-10-02T11:09:25.024Z,9.757433
2022-10-02T11:10:24.989Z,9.757401
2022-10-02T11:11:24.977Z,9.757440
2022-10-02T11:12:24.968Z,9.757520
2022-10-02T11:13:24.952Z,9.757509
2022-10-02T11:14:24.989Z,9.757537
2022-10-02T11:15:24.943Z,9.757436
2022-10-02T11:16:24.971Z,9.757460
2022-10-02T11:17:24.922Z,9.757480
2022-10-02T11:18:24.916Z,9.757481
2022-10-02T11:19:24.942Z,9.757483
2022-10-02T11:20:24.910Z,9.757483
2022-10-02T11:21:24.892Z,9.757343
2022-10-02T11:22:24.893Z,9.757444
2022-10-02T11:23:24.878Z,9.757457
2022-10-02T11:24:24.902Z,9.757496
2022-10-02T11:25:24.862Z,9.757498
2022-10-02T11:26:24.967Z,9.757501
2022-10-02T11:27:24.889Z,9.757430
2022-10-02T11:28:24.879Z,9.757450
2022-10-02T11:29:24.851Z,9.757418
2022-10-02T11:30:24.837Z,9.757354
2022-10-02T11:31:24.845Z,9.757436
2022-10-02T11:32:24.815Z,9.757458
2022-10-02T11:33:24.803Z,9.757559
2022-10-02T11:34:24.825Z,9.757483
2022-10-02T11:35:24.778Z,9.757442
2022-10-02T11:36:24.784Z,9.757257
2022-10-02T11:37:24.781Z,9.757310
2022-10-02T11:38:24.754Z,9.757401
2022-10-02T11:39:24.777Z,9.757380
2022-10-02T11:40:24.744Z,9.757495
2022-10-02T11:41:24.747Z,9.757477
2022-10-02T11:42:24.731Z,9.757381
2022-10-02T11:43:24.730Z,9.757436
2022-10-02T11:44:24.749Z,9.757435